PRIVATE WETTERSTATION BILLIGHEIM-ALLFELD                       ZURCK
Wetterdaten: Mittwoch, 02.03.2016
Datum Zeit Temp. A. Temp. A. min Temp. A. max Feuchte A. Luftdruck Regen Wind Richtung Richtung Sonnenschein ET Solar Taupunkt Windchill Windben Empfang
02.03.2016 00:00 0,8 C 0,8 C 0,9 C 91 % 1013,5 hPa 0,2 l/m 9,7 km/h (2 Bft) S-SW 202 0 min 0,000 mm 0 W/m -0,5 C -2,3 C 17,7 km/h (3 Bft) 91 %
02.03.2016 00:10 0,7 C 0,7 C 0,8 C 91 % 1013,3 hPa 0,0 l/m 4,8 km/h (1 Bft) S-SW 202 0 min 0,000 mm 0 W/m -0,6 C 0,7 C 9,7 km/h (2 Bft) 100 %
02.03.2016 00:20 0,7 C 0,7 C 0,7 C 91 % 1013,1 hPa 0,2 l/m 1,6 km/h (1 Bft) S-SW 202 0 min 0,000 mm 0 W/m -0,6 C 0,7 C 9,7 km/h (2 Bft) 100 %
02.03.2016 00:30 0,7 C 0,7 C 0,7 C 91 % 1012,9 hPa 0,0 l/m 6,4 km/h (2 Bft) S-SW 202 0 min 0,000 mm 0 W/m -0,6 C 0,7 C 14,5 km/h (3 Bft) 100 %
02.03.2016 00:40 0,7 C 0,7 C 0,7 C 91 % 1012,7 hPa 0,0 l/m 6,4 km/h (2 Bft) S-SW 202 0 min 0,000 mm 0 W/m -0,6 C 0,7 C 12,9 km/h (3 Bft) 100 %
02.03.2016 00:50 0,8 C 0,7 C 0,8 C 91 % 1012,6 hPa 0,0 l/m 4,8 km/h (1 Bft) S-SW 202 0 min 0,000 mm 0 W/m -0,5 C 0,8 C 11,3 km/h (2 Bft) 100 %
02.03.2016 01:00 0,9 C 0,8 C 0,9 C 91 % 1012,4 hPa 0,2 l/m 6,4 km/h (2 Bft) S-SW 202 0 min 0,000 mm 0 W/m -0,4 C 0,9 C 14,5 km/h (3 Bft) 100 %
02.03.2016 01:10 1,1 C 0,9 C 1,1 C 91 % 1012,2 hPa 0,0 l/m 4,8 km/h (1 Bft) S-SW 202 0 min 0,000 mm 0 W/m -0,2 C 1,1 C 14,5 km/h (3 Bft) 100 %
02.03.2016 01:20 1,3 C 1,1 C 1,3 C 91 % 1012,2 hPa 0,0 l/m 6,4 km/h (2 Bft) S-SW 202 0 min 0,000 mm 0 W/m -0,0 C 1,3 C 17,7 km/h (3 Bft) 100 %
02.03.2016 01:30 1,4 C 1,3 C 1,4 C 91 % 1012,0 hPa 0,0 l/m 6,4 km/h (2 Bft) S-SW 202 0 min 0,000 mm 0 W/m 0,1 C 1,4 C 22,5 km/h (4 Bft) 90 %
02.03.2016 01:40 1,4 C 1,4 C 1,4 C 91 % 1011,8 hPa 0,2 l/m 4,8 km/h (1 Bft) S-SW 202 0 min 0,000 mm 0 W/m 0,1 C 1,4 C 17,7 km/h (3 Bft) 100 %
02.03.2016 01:50 1,4 C 1,4 C 1,4 C 91 % 1011,7 hPa 0,0 l/m 4,8 km/h (1 Bft) S-SW 202 0 min 0,000 mm 0 W/m 0,1 C 1,4 C 12,9 km/h (3 Bft) 100 %
02.03.2016 02:00 1,5 C 1,4 C 1,5 C 91 % 1011,7 hPa 0,0 l/m 4,8 km/h (1 Bft) S-SW 202 0 min 0,000 mm 0 W/m 0,2 C 1,5 C 11,3 km/h (2 Bft) 100 %
02.03.2016 02:10 1,5 C 1,5 C 1,6 C 91 % 1011,5 hPa 0,2 l/m 1,6 km/h (1 Bft) S-SW 202 0 min 0,000 mm 0 W/m 0,2 C 1,5 C 8,0 km/h (2 Bft) 100 %
02.03.2016 02:20 1,6 C 1,5 C 1,6 C 91 % 1011,3 hPa 0,2 l/m 1,6 km/h (1 Bft) S-SW 202 0 min 0,000 mm 0 W/m 0,3 C 1,6 C 9,7 km/h (2 Bft) 100 %
02.03.2016 02:30 1,6 C 1,6 C 1,6 C 91 % 1010,9 hPa 0,0 l/m 3,2 km/h (1 Bft) S 180 0 min 0,000 mm 0 W/m 0,3 C 1,6 C 11,3 km/h (2 Bft) 100 %
02.03.2016 02:40 1,6 C 1,6 C 1,6 C 91 % 1010,7 hPa 0,0 l/m 4,8 km/h (1 Bft) S 180 0 min 0,000 mm 0 W/m 0,3 C 1,6 C 14,5 km/h (3 Bft) 100 %
02.03.2016 02:50 1,6 C 1,6 C 1,7 C 91 % 1010,7 hPa 0,0 l/m 4,8 km/h (1 Bft) S 180 0 min 0,000 mm 0 W/m 0,3 C 1,6 C 9,7 km/h (2 Bft) 100 %
02.03.2016 03:00 1,7 C 1,6 C 1,7 C 91 % 1010,6 hPa 0,0 l/m 3,2 km/h (1 Bft) S 180 0 min 0,000 mm 0 W/m 0,4 C 1,7 C 9,7 km/h (2 Bft) 91 %
02.03.2016 03:10 1,7 C 1,7 C 1,7 C 91 % 1010,6 hPa 0,0 l/m 3,2 km/h (1 Bft) S 180 0 min 0,000 mm 0 W/m 0,4 C 1,7 C 9,7 km/h (2 Bft) 100 %
02.03.2016 03:20 1,7 C 1,7 C 1,7 C 91 % 1010,4 hPa 0,0 l/m 3,2 km/h (1 Bft) S 180 0 min 0,000 mm 0 W/m 0,4 C 1,7 C 9,7 km/h (2 Bft) 100 %
02.03.2016 03:30 1,7 C 1,7 C 1,7 C 91 % 1010,2 hPa 0,2 l/m 3,2 km/h (1 Bft) S 180 0 min 0,000 mm 0 W/m 0,4 C 1,7 C 8,0 km/h (2 Bft) 100 %
02.03.2016 03:40 1,8 C 1,7 C 1,8 C 91 % 1009,9 hPa 0,0 l/m 0,0 km/h (0 Bft) S 180 0 min 0,000 mm 0 W/m 0,5 C 1,8 C 4,8 km/h (1 Bft) 99 %
02.03.2016 03:50 1,8 C 1,8 C 1,8 C 91 % 1009,7 hPa 0,0 l/m 3,2 km/h (1 Bft) S-SW 202 0 min 0,000 mm 0 W/m 0,5 C 1,8 C 9,7 km/h (2 Bft) 100 %
02.03.2016 04:00 1,8 C 1,8 C 1,8 C 91 % 1009,6 hPa 0,0 l/m 3,2 km/h (1 Bft) S 180 0 min 0,000 mm 0 W/m 0,5 C 1,8 C 9,7 km/h (2 Bft) 100 %
02.03.2016 04:10 1,8 C 1,8 C 1,8 C 91 % 1009,4 hPa 0,0 l/m 3,2 km/h (1 Bft) S 180 0 min 0,000 mm 0 W/m 0,5 C 1,8 C 11,3 km/h (2 Bft) 100 %
02.03.2016 04:20 1,9 C 1,8 C 1,9 C 91 % 1009,3 hPa 0,2 l/m 1,6 km/h (1 Bft) S-SW 202 0 min 0,000 mm 0 W/m 0,6 C 1,9 C 6,4 km/h (2 Bft) 100 %
02.03.2016 04:30 2,0 C 1,9 C 2,0 C 91 % 1009,2 hPa 0,0 l/m 1,6 km/h (1 Bft) S-SW 202 0 min 0,000 mm 0 W/m 0,7 C 2,0 C 8,0 km/h (2 Bft) 100 %
02.03.2016 04:40 2,1 C 2,0 C 2,1 C 91 % 1009,1 hPa 0,0 l/m 1,6 km/h (1 Bft) S-SW 202 0 min 0,000 mm 0 W/m 0,8 C 2,1 C 8,0 km/h (2 Bft) 88 %
02.03.2016 04:50 2,1 C 2,1 C 2,1 C 91 % 1008,9 hPa 0,0 l/m 1,6 km/h (1 Bft) S 180 0 min 0,000 mm 0 W/m 0,8 C 2,1 C 8,0 km/h (2 Bft) 100 %
02.03.2016 05:00 2,2 C 2,1 C 2,2 C 91 % 1008,8 hPa 0,2 l/m 3,2 km/h (1 Bft) S 180 0 min 0,000 mm 0 W/m 0,9 C 2,2 C 9,7 km/h (2 Bft) 100 %
02.03.2016 05:10 2,3 C 2,2 C 2,3 C 91 % 1008,6 hPa 0,2 l/m 3,2 km/h (1 Bft) S 180 0 min 0,000 mm 0 W/m 1,0 C 2,3 C 11,3 km/h (2 Bft) 100 %
02.03.2016 05:20 2,4 C 2,3 C 2,4 C 91 % 1008,4 hPa 0,0 l/m 3,2 km/h (1 Bft) S 180 0 min 0,000 mm 0 W/m 1,1 C 2,4 C 11,3 km/h (2 Bft) 100 %
02.03.2016 05:30 2,4 C 2,4 C 2,4 C 91 % 1008,3 hPa 0,0 l/m 0,0 km/h (0 Bft) S 180 0 min 0,000 mm 0 W/m 1,1 C 2,4 C 6,4 km/h (2 Bft) 100 %
02.03.2016 05:40 2,5 C 2,4 C 2,5 C 91 % 1008,1 hPa 0,0 l/m 0,0 km/h (0 Bft) S-SO 157 0 min 0,000 mm 0 W/m 1,2 C 2,5 C 6,4 km/h (2 Bft) 100 %
02.03.2016 05:50 2,5 C 2,4 C 2,5 C 91 % 1008,0 hPa 0,2 l/m 1,6 km/h (1 Bft) S-SO 157 0 min 0,000 mm 0 W/m 1,2 C 2,5 C 6,4 km/h (2 Bft) 100 %
02.03.2016 06:00 2,5 C 2,5 C 2,5 C 91 % 1008,0 hPa 0,0 l/m 1,6 km/h (1 Bft) S 180 0 min 0,000 mm 0 W/m 1,2 C 2,5 C 8,0 km/h (2 Bft) 100 %
02.03.2016 06:10 2,6 C 2,5 C 2,6 C 91 % 1007,9 hPa 0,0 l/m 3,2 km/h (1 Bft) S 180 0 min 0,000 mm 0 W/m 1,3 C 2,6 C 8,0 km/h (2 Bft) 100 %
02.03.2016 06:20 2,6 C 2,6 C 2,6 C 91 % 1007,7 hPa 0,0 l/m 3,2 km/h (1 Bft) S-SW 202 0 min 0,000 mm 0 W/m 1,3 C 2,6 C 8,0 km/h (2 Bft) 91 %
02.03.2016 06:30 2,7 C 2,6 C 2,7 C 91 % 1007,5 hPa 0,0 l/m 3,2 km/h (1 Bft) S-SW 202 0 min 0,000 mm 0 W/m 1,4 C 2,7 C 11,3 km/h (2 Bft) 100 %
02.03.2016 06:40 2,9 C 2,7 C 2,9 C 91 % 1007,3 hPa 0,2 l/m 4,8 km/h (1 Bft) S 180 0 min 0,000 mm 0 W/m 1,6 C 2,9 C 11,3 km/h (2 Bft) 100 %
02.03.2016 06:50 3,0 C 2,8 C 3,0 C 91 % 1007,1 hPa 0,0 l/m 6,4 km/h (2 Bft) S-SO 157 0 min 0,000 mm 0 W/m 1,7 C 3,0 C 11,3 km/h (2 Bft) 100 %
02.03.2016 07:00 3,1 C 3,0 C 3,1 C 91 % 1006,8 hPa 0,0 l/m 4,8 km/h (1 Bft) S 180 0 min 0,000 mm 0 W/m 1,8 C 3,1 C 16,1 km/h (3 Bft) 100 %
02.03.2016 07:10 3,1 C 3,1 C 3,1 C 91 % 1006,5 hPa 0,0 l/m 6,4 km/h (2 Bft) S 180 0 min 0,000 mm 0 W/m 1,8 C 3,1 C 14,5 km/h (3 Bft) 100 %
02.03.2016 07:20 3,3 C 3,1 C 3,3 C 91 % 1006,5 hPa 0,0 l/m 8,0 km/h (2 Bft) S 180 0 min 0,000 mm 0 W/m 2,0 C 1,8 C 17,7 km/h (3 Bft) 100 %
02.03.2016 07:30 3,3 C 3,3 C 3,3 C 91 % 1006,4 hPa 0,0 l/m 4,8 km/h (1 Bft) S 180 0 min 0,000 mm 0 W/m 2,0 C 3,3 C 14,5 km/h (3 Bft) 100 %
02.03.2016 07:40 3,6 C 3,3 C 3,6 C 91 % 1006,2 hPa 0,0 l/m 6,4 km/h (2 Bft) S 180 0 min 0,000 mm 0 W/m 2,3 C 3,6 C 19,3 km/h (3 Bft) 100 %
02.03.2016 07:50 3,7 C 3,6 C 3,7 C 91 % 1006,2 hPa 0,0 l/m 8,0 km/h (2 Bft) S 180 0 min 0,000 mm 5 W/m 2,4 C 2,2 C 19,3 km/h (3 Bft) 100 %
02.03.2016 08:00 3,8 C 3,7 C 3,8 C 91 % 1006,0 hPa 0,0 l/m 6,4 km/h (2 Bft) S 180 0 min 0,000 mm 5 W/m 2,5 C 3,8 C 16,1 km/h (3 Bft) 100 %
02.03.2016 08:10 4,0 C 3,8 C 4,0 C 91 % 1005,8 hPa 0,0 l/m 6,4 km/h (2 Bft) S 180 0 min 0,000 mm 7 W/m 2,7 C 4,0 C 17,7 km/h (3 Bft) 100 %
02.03.2016 08:20 4,1 C 4,0 C 4,1 C 91 % 1005,8 hPa 0,0 l/m 9,7 km/h (2 Bft) S-SW 202 0 min 0,000 mm 11 W/m 2,8 C 1,3 C 17,7 km/h (3 Bft) 100 %
02.03.2016 08:30 4,2 C 4,1 C 4,2 C 91 % 1005,7 hPa 0,0 l/m 8,0 km/h (2 Bft) S 180 0 min 0,000 mm 12 W/m 2,9 C 2,8 C 17,7 km/h (3 Bft) 100 %
02.03.2016 08:40 4,3 C 4,2 C 4,3 C 91 % 1005,4 hPa 0,2 l/m 6,4 km/h (2 Bft) S 180 0 min 0,000 mm 16 W/m 3,0 C 4,3 C 22,5 km/h (4 Bft) 99 %
02.03.2016 08:50 4,5 C 4,3 C 4,5 C 91 % 1005,2 hPa 0,0 l/m 8,0 km/h (2 Bft) S 180 0 min 0,000 mm 18 W/m 3,2 C 3,1 C 20,9 km/h (4 Bft) 100 %
02.03.2016 09:00 4,6 C 4,5 C 4,6 C 91 % 1005,0 hPa 0,0 l/m 9,7 km/h (2 Bft) S-SW 202 0 min 0,000 mm 28 W/m 3,3 C 1,8 C 24,1 km/h (4 Bft) 100 %
02.03.2016 09:10 4,7 C 4,6 C 4,7 C 91 % 1004,8 hPa 0,0 l/m 11,3 km/h (2 Bft) S-SW 202 0 min 0,000 mm 28 W/m 3,4 C 0,9 C 22,5 km/h (4 Bft) 100 %
02.03.2016 09:20 4,7 C 4,7 C 4,7 C 91 % 1004,6 hPa 0,0 l/m 11,3 km/h (2 Bft) S-SW 202 0 min 0,000 mm 28 W/m 3,4 C 0,9 C 24,1 km/h (4 Bft) 99 %
02.03.2016 09:30 4,8 C 4,7 C 4,8 C 91 % 1004,4 hPa 0,0 l/m 9,7 km/h (2 Bft) S-SW 202 0 min 0,000 mm 28 W/m 3,5 C 2,1 C 25,7 km/h (4 Bft) 98 %
02.03.2016 09:40 4,8 C 4,8 C 4,8 C 91 % 1004,4 hPa 0,0 l/m 12,9 km/h (3 Bft) S-SW 202 0 min 0,000 mm 56 W/m 3,5 C -0,0 C 22,5 km/h (4 Bft) 97 %
02.03.2016 09:50 4,9 C 4,8 C 4,9 C 92 % 1004,2 hPa 0,2 l/m 14,5 km/h (3 Bft) S-SW 202 0 min 0,000 mm 76 W/m 3,7 C -0,8 C 24,1 km/h (4 Bft) 98 %
02.03.2016 10:00 5,1 C 4,9 C 5,1 C 92 % 1004,1 hPa 0,2 l/m 12,9 km/h (3 Bft) S-SW 202 0 min 0,025 mm 100 W/m 3,9 C 0,3 C 24,1 km/h (4 Bft) 97 %
02.03.2016 10:10 5,2 C 5,1 C 5,2 C 91 % 1003,9 hPa 0,0 l/m 14,5 km/h (3 Bft) S-SW 202 0 min 0,000 mm 102 W/m 3,9 C -0,4 C 25,7 km/h (4 Bft) 97 %
02.03.2016 10:20 5,3 C 5,2 C 5,3 C 91 % 1003,4 hPa 0,2 l/m 14,5 km/h (3 Bft) S-SW 202 0 min 0,000 mm 113 W/m 4,0 C -0,3 C 25,7 km/h (4 Bft) 98 %
02.03.2016 10:30 5,6 C 5,2 C 5,6 C 91 % 1003,1 hPa 0,0 l/m 16,1 km/h (3 Bft) S-SW 207 0 min 0,000 mm 105 W/m 4,2 C -0,7 C 25,7 km/h (4 Bft) 100 %
02.03.2016 10:40 5,7 C 5,6 C 5,7 C 91 % 1003,0 hPa 0,0 l/m 13,9 km/h (3 Bft) S-SW 193 0 min 0,000 mm 102 W/m 4,3 C 0,5 C 24,1 km/h (4 Bft) 100 %
02.03.2016 10:50 5,8 C 5,7 C 5,8 C 91 % 1002,9 hPa 0,0 l/m 13,5 km/h (3 Bft) S-SW 197 0 min 0,000 mm 69 W/m 4,4 C 0,8 C 25,7 km/h (4 Bft) 100 %
02.03.2016 11:00 5,9 C 5,8 C 5,9 C 91 % 1002,6 hPa 0,0 l/m 11,0 km/h (2 Bft) S-SO 167 0 min 0,051 mm 74 W/m 4,5 C 2,4 C 22,5 km/h (4 Bft) 100 %
02.03.2016 11:10 6,0 C 5,8 C 6,0 C 91 % 1002,5 hPa 0,0 l/m 11,4 km/h (2 Bft) S 190 0 min 0,000 mm 123 W/m 4,6 C 2,3 C 22,5 km/h (4 Bft) 100 %
02.03.2016 11:20 6,1 C 6,0 C 6,1 C 91 % 1002,2 hPa 0,0 l/m 12,9 km/h (3 Bft) S 183 0 min 0,000 mm 81 W/m 4,7 C 1,5 C 25,7 km/h (4 Bft) 100 %
02.03.2016 11:30 6,2 C 6,1 C 6,2 C 91 % 1002,1 hPa 0,0 l/m 13,7 km/h (3 Bft) S-SW 193 0 min 0,000 mm 90 W/m 4,8 C 1,2 C 29,0 km/h (5 Bft) 100 %
02.03.2016 11:40 6,2 C 6,2 C 6,2 C 91 % 1001,8 hPa 0,0 l/m 10,8 km/h (2 Bft) S 188 0 min 0,000 mm 70 W/m 4,8 C 2,9 C 24,1 km/h (4 Bft) 100 %
02.03.2016 11:50 6,2 C 6,2 C 6,2 C 91 % 1001,7 hPa 0,0 l/m 13,1 km/h (3 Bft) S-SW 201 0 min 0,000 mm 37 W/m 4,8 C 1,5 C 25,7 km/h (4 Bft) 100 %
02.03.2016 12:00 6,2 C 6,2 C 6,2 C 91 % 1001,7 hPa 0,0 l/m 12,0 km/h (2 Bft) S-SW 196 0 min 0,051 mm 49 W/m 4,8 C 2,1 C 22,5 km/h (4 Bft) 100 %
02.03.2016 12:10 6,2 C 6,2 C 6,2 C 91 % 1001,8 hPa 0,2 l/m 13,1 km/h (3 Bft) S-SW 196 0 min 0,000 mm 65 W/m 4,8 C 1,5 C 27,4 km/h (4 Bft) 100 %
02.03.2016 12:20 6,2 C 6,2 C 6,2 C 91 % 1001,6 hPa 0,0 l/m 15,7 km/h (3 Bft) S-SW 195 0 min 0,000 mm 60 W/m 4,8 C 0,2 C 25,7 km/h (4 Bft) 100 %
02.03.2016 12:30 6,2 C 6,2 C 6,2 C 91 % 1001,6 hPa 0,0 l/m 14,0 km/h (3 Bft) S-SW 204 0 min 0,000 mm 37 W/m 4,8 C 1,0 C 22,5 km/h (4 Bft) 100 %
02.03.2016 12:40 6,2 C 6,2 C 6,2 C 91 % 1001,5 hPa 0,0 l/m 13,3 km/h (3 Bft) S-SW 211 0 min 0,000 mm 32 W/m 4,8 C 1,4 C 24,1 km/h (4 Bft) 100 %
02.03.2016 12:50 6,3 C 6,2 C 6,3 C 91 % 1001,4 hPa 0,0 l/m 11,5 km/h (2 Bft) S-SW 196 0 min 0,000 mm 28 W/m 4,9 C 2,6 C 24,1 km/h (4 Bft) 100 %
02.03.2016 13:00 6,3 C 6,2 C 6,3 C 91 % 1001,2 hPa 0,0 l/m 12,0 km/h (2 Bft) SW 215 0 min 0,025 mm 26 W/m 4,9 C 2,3 C 22,5 km/h (4 Bft) 100 %
02.03.2016 13:10 6,2 C 6,2 C 6,3 C 91 % 1000,8 hPa 0,2 l/m 11,7 km/h (2 Bft) SW 227 0 min 0,000 mm 91 W/m 4,8 C 2,3 C 19,3 km/h (3 Bft) 100 %
02.03.2016 13:20 6,3 C 6,2 C 6,3 C 91 % 1000,6 hPa 0,2 l/m 9,9 km/h (2 Bft) SW 233 0 min 0,000 mm 116 W/m 4,9 C 3,6 C 22,5 km/h (4 Bft) 100 %
02.03.2016 13:30 6,3 C 6,3 C 6,3 C 92 % 1000,5 hPa 0,0 l/m 7,3 km/h (2 Bft) W-SW 250 0 min 0,000 mm 100 W/m 5,1 C 5,5 C 24,1 km/h (4 Bft) 100 %
02.03.2016 13:40 6,3 C 6,3 C 6,4 C 91 % 1000,5 hPa 0,2 l/m 10,8 km/h (2 Bft) W 261 0 min 0,000 mm 79 W/m 4,9 C 3,0 C 25,7 km/h (4 Bft) 91 %
02.03.2016 13:50 6,1 C 6,1 C 6,3 C 91 % 1000,8 hPa 0,4 l/m 12,7 km/h (3 Bft) W 281 0 min 0,000 mm 33 W/m 4,7 C 1,6 C 37,0 km/h (5 Bft) 100 %
02.03.2016 14:00 5,5 C 5,5 C 6,1 C 91 % 1000,9 hPa 0,2 l/m 18,4 km/h (3 Bft) W 266 0 min 0,051 mm 63 W/m 4,2 C -1,9 C 53,1 km/h (7 Bft) 100 %
02.03.2016 14:10 5,3 C 5,3 C 5,5 C 91 % 1000,8 hPa 0,2 l/m 10,2 km/h (2 Bft) W-NW 302 0 min 0,000 mm 77 W/m 4,0 C 2,3 C 33,8 km/h (5 Bft) 100 %
02.03.2016 14:20 5,2 C 5,2 C 5,3 C 90 % 1000,7 hPa 0,0 l/m 10,8 km/h (2 Bft) W-NW 282 0 min 0,000 mm 62 W/m 3,7 C 1,7 C 29,0 km/h (5 Bft) 99 %
02.03.2016 14:30 5,1 C 5,1 C 5,2 C 88 % 1000,7 hPa 0,0 l/m 12,2 km/h (2 Bft) W-SW 248 0 min 0,000 mm 88 W/m 3,3 C 0,8 C 25,7 km/h (4 Bft) 100 %
02.03.2016 14:40 5,2 C 5,1 C 5,2 C 85 % 1000,4 hPa 0,0 l/m 14,0 km/h (3 Bft) NW 311 0 min 0,000 mm 77 W/m 2,9 C -0,2 C 32,2 km/h (5 Bft) 100 %
02.03.2016 14:50 5,2 C 5,2 C 5,2 C 85 % 1000,5 hPa 0,0 l/m 11,1 km/h (2 Bft) W-NW 290 0 min 0,000 mm 62 W/m 2,9 C 1,6 C 22,5 km/h (4 Bft) 100 %
02.03.2016 15:00 5,2 C 5,2 C 5,3 C 86 % 1000,7 hPa 0,0 l/m 7,8 km/h (2 Bft) W-SW 255 0 min 0,051 mm 49 W/m 3,1 C 4,0 C 19,3 km/h (3 Bft) 99 %
02.03.2016 15:10 4,9 C 4,9 C 5,2 C 87 % 1001,0 hPa 0,2 l/m 12,1 km/h (2 Bft) W-NW 298 0 min 0,000 mm 42 W/m 2,9 C 0,6 C 32,2 km/h (5 Bft) 100 %
02.03.2016 15:20 4,5 C 4,5 C 4,9 C 89 % 1000,9 hPa 0,2 l/m 7,8 km/h (2 Bft) W-NW 282 0 min 0,000 mm 33 W/m 2,8 C 3,2 C 25,7 km/h (4 Bft) 100 %
02.03.2016 15:30 4,2 C 4,2 C 4,5 C 90 % 1000,7 hPa 0,2 l/m 6,4 km/h (2 Bft) W-NW 302 0 min 0,000 mm 33 W/m 2,7 C 4,2 C 17,7 km/h (3 Bft) 100 %
02.03.2016 15:40 3,9 C 3,9 C 4,2 C 90 % 1000,6 hPa 0,0 l/m 4,3 km/h (1 Bft) W 265 0 min 0,000 mm 33 W/m 2,4 C 3,9 C 9,7 km/h (2 Bft) 100 %
02.03.2016 15:50 3,8 C 3,8 C 3,9 C 91 % 1000,6 hPa 0,0 l/m 5,4 km/h (1 Bft) SW 235 0 min 0,000 mm 26 W/m 2,5 C 3,8 C 14,5 km/h (3 Bft) 100 %
02.03.2016 16:00 3,8 C 3,8 C 3,8 C 91 % 1000,6 hPa 0,0 l/m 2,3 km/h (1 Bft) S-SW 207 0 min 0,025 mm 23 W/m 2,5 C 3,8 C 11,3 km/h (2 Bft) 100 %
02.03.2016 16:10 3,6 C 3,6 C 3,8 C 91 % 1000,6 hPa 0,0 l/m 9,1 km/h (2 Bft) S-SW 202 0 min 0,000 mm 25 W/m 2,3 C 1,2 C 17,7 km/h (3 Bft) 100 %
02.03.2016 16:20 3,6 C 3,6 C 3,6 C 91 % 1000,6 hPa 0,0 l/m 5,1 km/h (1 Bft) S-SW 192 0 min 0,000 mm 25 W/m 2,3 C 3,6 C 16,1 km/h (3 Bft) 100 %
02.03.2016 16:30 3,4 C 3,4 C 3,6 C 91 % 1000,5 hPa 0,0 l/m 6,4 km/h (2 Bft) S 169 0 min 0,000 mm 21 W/m 2,1 C 3,4 C 16,1 km/h (3 Bft) 99 %
02.03.2016 16:40 3,3 C 3,3 C 3,4 C 91 % 1000,6 hPa 0,0 l/m 4,9 km/h (1 Bft) S-SW 192 0 min 0,000 mm 18 W/m 2,0 C 3,3 C 11,3 km/h (2 Bft) 100 %
02.03.2016 16:50 3,3 C 3,3 C 3,3 C 91 % 1000,7 hPa 0,0 l/m 3,6 km/h (1 Bft) S 186 0 min 0,000 mm 16 W/m 2,0 C 3,3 C 9,7 km/h (2 Bft) 100 %
02.03.2016 17:00 3,2 C 3,2 C 3,3 C 91 % 1000,8 hPa 0,0 l/m 2,8 km/h (1 Bft) S 175 0 min 0,000 mm 11 W/m 1,9 C 3,2 C 9,7 km/h (2 Bft) 100 %
02.03.2016 17:10 3,1 C 3,1 C 3,2 C 91 % 1000,6 hPa 0,0 l/m 1,6 km/h (1 Bft) S-SW 198 0 min 0,000 mm 14 W/m 1,8 C 3,1 C 8,0 km/h (2 Bft) 100 %
02.03.2016 17:20 3,2 C 3,1 C 3,2 C 91 % 1000,5 hPa 0,0 l/m 4,9 km/h (1 Bft) SW 221 0 min 0,000 mm 12 W/m 1,9 C 3,2 C 14,5 km/h (3 Bft) 100 %
02.03.2016 17:30 3,2 C 3,2 C 3,2 C 91 % 1000,7 hPa 0,0 l/m 2,8 km/h (1 Bft) S-SW 205 0 min 0,000 mm 14 W/m 1,9 C 3,2 C 9,7 km/h (2 Bft) 99 %
02.03.2016 17:40 3,2 C 3,2 C 3,2 C 91 % 1000,9 hPa 0,0 l/m 8,5 km/h (2 Bft) S-SW 196 0 min 0,000 mm 12 W/m 1,9 C 1,3 C 19,3 km/h (3 Bft) 98 %
02.03.2016 17:50 3,2 C 3,2 C 3,2 C 91 % 1001,2 hPa 0,0 l/m 8,8 km/h (2 Bft) S-SW 198 0 min 0,000 mm 7 W/m 1,9 C 1,0 C 17,7 km/h (3 Bft) 97 %
02.03.2016 18:00 3,2 C 3,2 C 3,2 C 91 % 1001,1 hPa 0,0 l/m 4,4 km/h (1 Bft) SW 216 0 min 0,000 mm 12 W/m 1,9 C 3,2 C 16,1 km/h (3 Bft) 97 %
02.03.2016 18:10 3,2 C 3,2 C 3,2 C 91 % 1001,2 hPa 0,0 l/m 4,8 km/h (1 Bft) S-SW 212 0 min 0,000 mm 0 W/m 1,9 C 3,2 C 16,1 km/h (3 Bft) 98 %
02.03.2016 18:20 3,1 C 3,1 C 3,2 C 91 % 1001,2 hPa 0,0 l/m 5,5 km/h (1 Bft) SW 221 0 min 0,000 mm 0 W/m 1,8 C 3,1 C 16,1 km/h (3 Bft) 97 %
02.03.2016 18:30 3,1 C 3,1 C 3,1 C 91 % 1001,6 hPa 0,0 l/m 3,6 km/h (1 Bft) S 184 0 min 0,000 mm 0 W/m 1,8 C 3,1 C 11,3 km/h (2 Bft) 98 %
02.03.2016 18:40 3,1 C 3,1 C 3,1 C 91 % 1001,9 hPa 0,0 l/m 4,4 km/h (1 Bft) S-SW 212 0 min 0,000 mm 0 W/m 1,8 C 3,1 C 14,5 km/h (3 Bft) 97 %
02.03.2016 18:50 3,0 C 3,0 C 3,1 C 91 % 1002,6 hPa 0,0 l/m 10,1 km/h (2 Bft) SW 223 0 min 0,000 mm 0 W/m 1,7 C -0,2 C 20,9 km/h (4 Bft) 98 %
02.03.2016 19:00 2,9 C 2,9 C 3,0 C 92 % 1002,7 hPa 0,0 l/m 10,2 km/h (2 Bft) S 186 0 min 0,000 mm 0 W/m 1,7 C -0,4 C 20,9 km/h (4 Bft) 89 %
02.03.2016 19:10 2,8 C 2,8 C 2,9 C 91 % 1002,9 hPa 0,0 l/m 12,5 km/h (3 Bft) S-SW 194 0 min 0,000 mm 0 W/m 1,5 C -2,1 C 25,7 km/h (4 Bft) 98 %
02.03.2016 19:20 2,8 C 2,8 C 2,8 C 91 % 1002,8 hPa 0,0 l/m 7,7 km/h (2 Bft) S 180 0 min 0,000 mm 0 W/m 1,5 C 1,6 C 16,1 km/h (3 Bft) 98 %
02.03.2016 19:30 2,8 C 2,8 C 2,8 C 91 % 1003,1 hPa 0,0 l/m 6,9 km/h (2 Bft) S-SW 207 0 min 0,000 mm 0 W/m 1,5 C 2,3 C 14,5 km/h (3 Bft) 97 %
02.03.2016 19:40 2,7 C 2,7 C 2,8 C 91 % 1003,1 hPa 0,0 l/m 9,0 km/h (2 Bft) SW 225 0 min 0,000 mm 0 W/m 1,4 C 0,3 C 22,5 km/h (4 Bft) 98 %
02.03.2016 19:50 2,7 C 2,7 C 2,7 C 91 % 1003,2 hPa 0,0 l/m 8,8 km/h (2 Bft) S-SW 205 0 min 0,000 mm 0 W/m 1,4 C 0,5 C 20,9 km/h (4 Bft) 88 %
02.03.2016 20:00 2,6 C 2,6 C 2,7 C 91 % 1003,2 hPa 0,0 l/m 11,6 km/h (2 Bft) S-SW 209 0 min 0,000 mm 0 W/m 1,3 C -1,7 C 22,5 km/h (4 Bft) 97 %
02.03.2016 20:10 2,5 C 2,5 C 2,6 C 91 % 1003,1 hPa 0,0 l/m 12,7 km/h (3 Bft) S-SW 193 0 min 0,000 mm 0 W/m 1,2 C -2,6 C 27,4 km/h (4 Bft) 97 %
02.03.2016 20:20 2,4 C 2,4 C 2,5 C 91 % 1003,0 hPa 0,0 l/m 13,5 km/h (3 Bft) S-SW 192 0 min 0,000 mm 0 W/m 1,1 C -3,2 C 24,1 km/h (4 Bft) 97 %
02.03.2016 20:30 2,3 C 2,3 C 2,4 C 91 % 1002,8 hPa 0,0 l/m 8,8 km/h (2 Bft) S 182 0 min 0,000 mm 0 W/m 1,0 C 0,1 C 24,1 km/h (4 Bft) 96 %
02.03.2016 20:40 2,1 C 2,1 C 2,3 C 91 % 1002,8 hPa 0,0 l/m 9,3 km/h (2 Bft) S-SW 198 0 min 0,000 mm 0 W/m 0,8 C -0,6 C 16,1 km/h (3 Bft) 97 %
02.03.2016 20:50 1,9 C 1,9 C 2,1 C 91 % 1002,6 hPa 0,0 l/m 8,1 km/h (2 Bft) S-SW 211 0 min 0,000 mm 0 W/m 0,6 C 0,3 C 16,1 km/h (3 Bft) 97 %
02.03.2016 21:00 1,8 C 1,8 C 1,9 C 91 % 1002,3 hPa 0,0 l/m 7,6 km/h (2 Bft) S-SW 196 0 min 0,000 mm 0 W/m 0,5 C 0,6 C 16,1 km/h (3 Bft) 97 %
02.03.2016 21:10 1,8 C 1,8 C 1,8 C 91 % 1002,4 hPa 0,0 l/m 4,8 km/h (1 Bft) S-SW 202 0 min 0,000 mm 0 W/m 0,5 C 1,8 C 11,3 km/h (2 Bft) 100 %
02.03.2016 21:20 1,7 C 1,6 C 1,8 C 91 % 1002,5 hPa 0,0 l/m 1,6 km/h (1 Bft) S-SW 202 0 min 0,000 mm 0 W/m 0,4 C 1,7 C 11,3 km/h (2 Bft) 100 %
02.03.2016 21:30 1,4 C 1,4 C 1,7 C 91 % 1002,5 hPa 0,0 l/m 1,6 km/h (1 Bft) S-SW 202 0 min 0,000 mm 0 W/m 0,1 C 1,4 C 6,4 km/h (2 Bft) 89 %
02.03.2016 21:40 1,4 C 1,4 C 1,4 C 92 % 1002,4 hPa 0,0 l/m 0,0 km/h (0 Bft) S 180 0 min 0,000 mm 0 W/m 0,2 C 1,4 C 3,2 km/h (1 Bft) 97 %
02.03.2016 21:50 1,4 C 1,4 C 1,4 C 92 % 1002,2 hPa 0,0 l/m 1,6 km/h (1 Bft) S-SO 157 0 min 0,000 mm 0 W/m 0,2 C 1,4 C 9,7 km/h (2 Bft) 100 %
02.03.2016 22:00 1,4 C 1,4 C 1,4 C 92 % 1002,2 hPa 0,0 l/m 6,4 km/h (2 Bft) S-SO 157 0 min 0,000 mm 0 W/m 0,2 C 1,4 C 14,5 km/h (3 Bft) 100 %
02.03.2016 22:10 1,5 C 1,4 C 1,6 C 92 % 1002,1 hPa 0,0 l/m 4,8 km/h (1 Bft) S-SO 157 0 min 0,000 mm 0 W/m 0,3 C 1,5 C 16,1 km/h (3 Bft) 100 %
02.03.2016 22:20 1,6 C 1,4 C 1,6 C 91 % 1002,3 hPa 0,0 l/m 8,0 km/h (2 Bft) S-SO 157 0 min 0,000 mm 0 W/m 0,3 C 0,0 C 20,9 km/h (4 Bft) 100 %
02.03.2016 22:30 1,4 C 1,4 C 1,6 C 92 % 1002,1 hPa 0,0 l/m 4,8 km/h (1 Bft) S 180 0 min 0,000 mm 0 W/m 0,2 C 1,4 C 16,1 km/h (3 Bft) 99 %
02.03.2016 22:40 1,3 C 1,3 C 1,4 C 92 % 1002,2 hPa 0,0 l/m 6,4 km/h (2 Bft) S 180 0 min 0,000 mm 0 W/m 0,1 C 1,3 C 17,7 km/h (3 Bft) 100 %
02.03.2016 22:50 1,3 C 1,3 C 1,4 C 92 % 1001,9 hPa 0,0 l/m 6,4 km/h (2 Bft) S 180 0 min 0,000 mm 0 W/m 0,1 C 1,3 C 17,7 km/h (3 Bft) 100 %
02.03.2016 23:00 1,4 C 1,3 C 1,4 C 91 % 1001,8 hPa 0,0 l/m 8,0 km/h (2 Bft) S-SO 157 0 min 0,000 mm 0 W/m 0,1 C -0,2 C 16,1 km/h (3 Bft) 100 %
02.03.2016 23:10 1,4 C 1,4 C 1,4 C 91 % 1001,7 hPa 0,0 l/m 8,0 km/h (2 Bft) S-SO 157 0 min 0,000 mm 0 W/m 0,1 C -0,2 C 17,7 km/h (3 Bft) 100 %
02.03.2016 23:20 1,2 C 1,2 C 1,4 C 91 % 1001,6 hPa 0,0 l/m 6,4 km/h (2 Bft) S 180 0 min 0,000 mm 0 W/m -0,1 C 1,2 C 19,3 km/h (3 Bft) 100 %
02.03.2016 23:30 1,1 C 1,1 C 1,2 C 91 % 1001,7 hPa 0,0 l/m 8,0 km/h (2 Bft) S-SW 202 0 min 0,000 mm 0 W/m -0,2 C -0,5 C 17,7 km/h (3 Bft) 100 %
02.03.2016 23:40 1,1 C 1,1 C 1,1 C 92 % 1001,7 hPa 0,0 l/m 11,3 km/h (2 Bft) SW 225 0 min 0,000 mm 0 W/m -0,1 C -3,2 C 24,1 km/h (4 Bft) 100 %
02.03.2016 23:50 1,1 C 1,1 C 1,1 C 91 % 1001,5 hPa 0,0 l/m 9,7 km/h (2 Bft) SW 225 0 min 0,000 mm 0 W/m -0,2 C -2,0 C 20,9 km/h (4 Bft) 100 %
_ Min-Zeit 00:10 00:10 00:20 14:40 14:40 - 03:40 - - - - - 00:10 23:40 21:40 04:40
Minimum _ 0,7 C 0,7 C 0,7 C 85 % 1000,4 hPa - 0,0 km/h (0 Bft) - - - - - -0,6 C -3,2 C 3,2 km/h (1 Bft) 88 %
_ Max-Zeit 13:40 13:30 13:40 09:50 00:00 13:50 14:00 - - 00:00 11:00 11:10 13:30 13:30 14:00 00:20
Maximum _ 6,4 C 6,3 C 6,4 C 92 % 1013,5 hPa 0,4 l/m 18,4 km/h
W (3 Bft)
- - 0 min 0,051 mm 123 W/m 5,1 C 5,5 C 53,1 km/h
W (7 Bft)
100 %
Durchschnitt _ 3,2 C 3,2 C 3,3 C 91 % 1004,7 hPa #5,4 l/m 7,3 km/h (2 Bft) S-SW - #0 min. #0,279 mm 48 W/m 1,9 C 1,6 C 17,4 km/h (3 Bft) 99 %
PRIVATE WETTERSTATION BILLIGHEIM-ALLFELD - www.neckar-odenwald-wetter.de - Holger Sonntag